^^
Saratoga-Weather Station Historical Data
Daily Summary for June 9, 2021 Units:  Metric    English   Both
Daily Weekly Monthly Yearly Custom
  High: Low: Average:
Temperature: 24.6 °C 15.3 °C 19.1 °C
Dew Point: 21.5 °C 13.1 °C 16.8 °C
Humidity: 95% 67% 87%
Wind Speed: 6.4km/h 0km/h 0.9km/h
Wind Gust: 12.9km/h - -
Wind- - SSW
Pressure: 1012.5 hPa 1009.8 hPa -
Precipitation: 4.8 mm    
Historical Graphs
 
 
Tabular Data for June 9, 2021
Time Temperature Dew Point Pressure Wind Wind Speed Wind Gust Humidity Rainfall Rate (Hourly) solar
00:03 16.9 °C 13.8 °C 1010.8 hPa Calm     82% 0.0 mm 0 W/m2
00:08 16.8 °C 13.7 °C 1010.8 hPa Calm     82% 0.0 mm 0 W/m2
00:13 16.8 °C 13.7 °C 1010.8 hPa Calm     82% 0.0 mm 0 W/m2
00:19 16.8 °C 13.7 °C 1010.8 hPa Calm     82% 0.0 mm 0 W/m2
00:24 16.7 °C 13.6 °C 1010.8 hPa Calm     82% 0.0 mm 0 W/m2
00:29 16.7 °C 13.8 °C 1010.8 hPa Calm     83% 0.0 mm 0 W/m2
00:34 16.6 °C 13.7 °C 1010.8 hPa Calm     83% 0.0 mm 0 W/m2
00:39 16.6 °C 13.9 °C 1010.8 hPa Calm     84% 0.0 mm 0 W/m2
00:44 16.6 °C 13.9 °C 1010.8 hPa Calm     84% 0.0 mm 0 W/m2
00:49 16.6 °C 13.9 °C 1010.8 hPa Calm     84% 0.0 mm 0 W/m2
00:54 16.6 °C 13.9 °C 1010.8 hPa Calm     84% 0.0 mm 0 W/m2
00:59 16.5 °C 13.8 °C 1010.8 hPa Calm     84% 0.0 mm 0 W/m2
01:04 16.4 °C 13.7 °C 1010.8 hPa Calm     84% 0.0 mm 0 W/m2
01:09 16.3 °C 13.6 °C 1010.8 hPa Calm     84% 0.0 mm 0 W/m2
01:14 16.3 °C 13.6 °C 1010.8 hPa Calm     84% 0.0 mm 0 W/m2
01:19 16.3 °C 13.8 °C 1010.8 hPa Calm     85% 0.0 mm 0 W/m2
01:24 16.3 °C 13.8 °C 1010.8 hPa Calm     85% 0.0 mm 0 W/m2
01:29 16.2 °C 13.7 °C 1010.8 hPa Calm     85% 0.0 mm 0 W/m2
01:34 16.2 °C 13.7 °C 1010.8 hPa Calm     85% 0.0 mm 0 W/m2
01:39 16.2 °C 13.7 °C 1010.8 hPa Calm     85% 0.0 mm 0 W/m2
01:44 16.2 °C 13.7 °C 1010.8 hPa Calm     85% 0.0 mm 0 W/m2
01:49 16.2 °C 13.7 °C 1010.8 hPa Calm     85% 0.0 mm 0 W/m2
01:54 16.1 °C 13.6 °C 1010.8 hPa Calm     85% 0.0 mm 0 W/m2
01:59 16.2 °C 13.7 °C 1010.8 hPa Calm     85% 0.0 mm 0 W/m2
02:04 16.2 °C 13.7 °C 1010.5 hPa Calm     85% 0.0 mm 0 W/m2
02:09 16.2 °C 13.7 °C 1010.5 hPa Calm     85% 0.0 mm 0 W/m2
02:14 16.2 °C 13.7 °C 1010.5 hPa Calm     85% 0.0 mm 0 W/m2
02:19 16.1 °C 13.6 °C 1010.5 hPa Calm     85% 0.0 mm 0 W/m2
02:24 16.1 °C 13.6 °C 1010.5 hPa Calm     85% 0.0 mm 0 W/m2
02:29 16.1 °C 13.6 °C 1010.2 hPa Calm     85% 0.0 mm 0 W/m2
02:34 16.1 °C 13.6 °C 1010.2 hPa Calm     85% 0.0 mm 0 W/m2
02:39 16.1 °C 13.6 °C 1010.2 hPa Calm     85% 0.0 mm 0 W/m2
02:44 16 °C 13.7 °C 1010.2 hPa Calm     86% 0.0 mm 0 W/m2
02:49 15.9 °C 13.6 °C 1010.2 hPa Calm     86% 0.0 mm 0 W/m2
02:55 15.9 °C 13.6 °C 1010.2 hPa Calm     86% 0.0 mm 0 W/m2
03:00 15.8 °C 13.5 °C 1010.2 hPa Calm     86% 0.0 mm 0 W/m2
03:05 15.8 °C 13.5 °C 1010.2 hPa Calm     86% 0.0 mm 0 W/m2
03:10 15.7 °C 13.4 °C 1010.2 hPa Calm     86% 0.0 mm 0 W/m2
03:15 15.7 °C 13.4 °C 1010.2 hPa Calm     86% 0.0 mm 0 W/m2
03:20 15.7 °C 13.4 °C 1010.2 hPa Calm     86% 0.0 mm 0 W/m2
03:25 15.6 °C 13.3 °C 1010.2 hPa Calm     86% 0.0 mm 0 W/m2
03:30 15.6 °C 13.3 °C 1010.2 hPa Calm     86% 0.0 mm 0 W/m2
03:35 15.6 °C 13.3 °C 1010.2 hPa Calm     86% 0.0 mm 0 W/m2
03:40 15.6 °C 13.4 °C 1010.2 hPa Calm     87% 0.0 mm 0 W/m2
03:45 15.5 °C 13.3 °C 1010.2 hPa Calm     87% 0.0 mm 0 W/m2
03:50 15.4 °C 13.2 °C 1010.2 hPa Calm     87% 0.0 mm 0 W/m2
03:55 15.4 °C 13.2 °C 1010.2 hPa Calm     87% 0.0 mm 0 W/m2
04:01 15.4 °C 13.2 °C 1010.2 hPa Calm     87% 0.0 mm 0 W/m2
04:06 15.3 °C 13.1 °C 1010.2 hPa Calm     87% 0.0 mm 0 W/m2
04:11 15.3 °C 13.3 °C 1010.2 hPa Calm     88% 0.0 mm 0 W/m2
04:16 15.3 °C 13.3 °C 1010.2 hPa Calm     88% 0.0 mm 0 W/m2
04:21 15.3 °C 13.3 °C 1010.2 hPa Calm     88% 0.0 mm 0 W/m2
04:26 15.3 °C 13.3 °C 1010.2 hPa Calm     88% 0.0 mm 0 W/m2
04:31 15.3 °C 13.3 °C 1010.2 hPa Calm     88% 0.0 mm 0 W/m2
04:36 15.3 °C 13.3 °C 1010.2 hPa Calm     88% 0.0 mm 0 W/m2
04:41 15.4 °C 13.4 °C 1010.2 hPa Calm     88% 0.0 mm 0 W/m2
04:46 15.4 °C 13.4 °C 1010.2 hPa Calm     88% 0.0 mm 0 W/m2
04:51 15.5 °C 13.5 °C 1010.2 hPa Calm     88% 0.0 mm 0 W/m2
04:56 15.6 °C 13.6 °C 1010.2 hPa Calm     88% 0.0 mm 0 W/m2
05:01 15.8 °C 13.8 °C 1010.2 hPa Calm     88% 0.0 mm 0 W/m2
05:06 15.9 °C 13.9 °C 1010.2 hPa Calm     88% 0.0 mm 0 W/m2
05:11 16 °C 14 °C 1010.2 hPa Calm     88% 0.0 mm 0 W/m2
05:16 16.1 °C 13.9 °C 1010.2 hPa Calm     87% 0.0 mm 0 W/m2
05:21 16.2 °C 14 °C 1010.2 hPa Calm     87% 0.0 mm 0 W/m2
05:26 16.2 °C 14 °C 1010.2 hPa Calm     87% 0.0 mm 0 W/m2
05:31 16.2 °C 14 °C 1010.2 hPa Calm     87% 0.0 mm 0 W/m2
05:36 16.3 °C 14.1 °C 1010.2 hPa Calm     87% 0.0 mm 0 W/m2
05:41 16.3 °C 14.1 °C 1010.2 hPa Calm     87% 0.0 mm 0 W/m2
05:46 16.3 °C 14.1 °C 1010.2 hPa Calm     87% 0.0 mm 0 W/m2
05:51 16.3 °C 14.1 °C 1010.2 hPa Calm     87% 0.0 mm 0 W/m2
05:56 16.4 °C 14.2 °C 1010.2 hPa Calm     87% 0.0 mm 0 W/m2
06:01 16.5 °C 14.5 °C 1010.2 hPa Calm   1.6 km/h 88% 0.0 mm 0 W/m2
06:06 16.5 °C 14.7 °C 1010.2 hPa Calm     89% 0.2 mm 0 W/m2
06:11 16.4 °C 14.6 °C 1010.2 hPa Calm   1.6 km/h 89% 0.2 mm 0 W/m2
06:16 16.4 °C 14.8 °C 1009.8 hPa Calm     90% 0.2 mm 0 W/m2
06:21 16.3 °C 14.8 °C 1009.8 hPa Calm   1.6 km/h 91% 0.2 mm 0 W/m2
06:26 16.2 °C 14.7 °C 1009.8 hPa Calm   1.6 km/h 91% 0.2 mm 0 W/m2
06:31 16.2 °C 14.9 °C 1010.2 hPa Calm   1.6 km/h 92% 0.2 mm 0 W/m2
06:36 16.1 °C 14.8 °C 1010.2 hPa Calm     92% 0.2 mm 0 W/m2
06:41 15.9 °C 14.6 °C 1010.2 hPa Calm     92% 0.2 mm 0 W/m2
06:46 15.8 °C 14.5 °C 1009.8 hPa Calm     92% 0.2 mm 0 W/m2
06:51 15.8 °C 14.5 °C 1010.2 hPa Calm     92% 0.2 mm 0 W/m2
06:56 15.7 °C 14.4 °C 1010.2 hPa Calm     92% 0.2 mm 0 W/m2
07:01 15.6 °C 14.5 °C 1010.2 hPa Calm     93% 0.2 mm 0 W/m2
07:06 15.6 °C 14.5 °C 1010.2 hPa Calm     93% 0.0 mm 0 W/m2
07:11 15.4 °C 14.3 °C 1010.2 hPa Calm     93% 0.0 mm 5 W/m2
07:16 15.3 °C 14.2 °C 1010.2 hPa Calm     93% 0.0 mm 7 W/m2
07:21 15.3 °C 14.2 °C 1010.2 hPa Calm     93% 0.0 mm 9 W/m2
07:26 15.3 °C 14.2 °C 1010.2 hPa Calm     93% 0.0 mm 12 W/m2
07:31 15.3 °C 14.3 °C 1010.2 hPa Calm     94% 0.0 mm 19 W/m2
07:36 15.3 °C 14.3 °C 1010.2 hPa Calm     94% 0.0 mm 30 W/m2
07:41 15.3 °C 14.3 °C 1010.2 hPa Calm     94% 0.0 mm 42 W/m2
07:46 15.3 °C 14.3 °C 1010.2 hPa Calm   1.6 km/h 94% 0.0 mm 47 W/m2
07:51 15.3 °C 14.3 °C 1010.2 hPa Calm     94% 0.0 mm 46 W/m2
07:56 15.4 °C 14.4 °C 1010.2 hPa SW 1.4 km/h 3.2 km/h 94% 0.0 mm 54 W/m2
08:01 15.6 °C 14.6 °C 1010.5 hPa NNW 1.4 km/h 8 km/h 94% 0.2 mm 65 W/m2
08:06 15.7 °C 14.7 °C 1010.5 hPa West 3.2 km/h 4.8 km/h 94% 0.2 mm 77 W/m2
08:11 15.8 °C 14.8 °C 1010.5 hPa Calm   8 km/h 94% 0.2 mm 81 W/m2
08:16 16.1 °C 15.1 °C 1010.5 hPa North 1.4 km/h 1.6 km/h 94% 0.2 mm 83 W/m2
08:21 16.2 °C 15.2 °C 1010.5 hPa Calm   3.2 km/h 94% 0.2 mm 105 W/m2
08:26 16.3 °C 15.3 °C 1010.5 hPa Calm     94% 0.2 mm 95 W/m2
08:31 16.6 °C 15.6 °C 1010.5 hPa NW 1.4 km/h 3.2 km/h 94% 0.2 mm 107 W/m2
08:36 16.8 °C 15.7 °C 1010.5 hPa SW 1.4 km/h 3.2 km/h 93% 0.2 mm 125 W/m2
08:41 17.2 °C 16.1 °C 1010.5 hPa NW 3.2 km/h 4.8 km/h 93% 0.2 mm 195 W/m2
08:46 17.7 °C 16.4 °C 1010.5 hPa NW 4.7 km/h 4.8 km/h 92% 0.2 mm 102 W/m2
08:51 17.9 °C 16.2 °C 1010.5 hPa Calm   3.2 km/h 90% 0.2 mm 83 W/m2
08:57 18.1 °C 16.3 °C 1010.5 hPa Calm   1.6 km/h 89% 0.2 mm 81 W/m2
09:02 18.2 °C 16.4 °C 1010.5 hPa Calm   3.2 km/h 89% 0.0 mm 93 W/m2
09:07 18.3 °C 16.5 °C 1010.8 hPa ESE 3.2 km/h 3.2 km/h 89% 0.0 mm 77 W/m2
09:12 18.3 °C 16.3 °C 1010.8 hPa ESE 3.2 km/h 4.8 km/h 88% 0.0 mm 62 W/m2
09:17 18.4 °C 16.6 °C 1010.8 hPa ESE 3.2 km/h 4.8 km/h 89% 0.0 mm 44 W/m2
09:22 18.4 °C 16.6 °C 1011.2 hPa North 1.4 km/h 3.2 km/h 89% 0.0 mm 44 W/m2
09:27 18.4 °C 16.4 °C 1011.2 hPa NW 4.7 km/h 6.4 km/h 88% 0.0 mm 58 W/m2
09:32 18.6 °C 16.4 °C 1011.2 hPa Calm   11.3 km/h 87% 0.0 mm 62 W/m2
09:37 18.6 °C 16.4 °C 1011.2 hPa Calm   3.2 km/h 87% 0.0 mm 54 W/m2
09:42 18.7 °C 16.5 °C 1011.5 hPa ENE 1.4 km/h 3.2 km/h 87% 0.0 mm 42 W/m2
09:47 18.8 °C 16.6 °C 1011.5 hPa North 1.4 km/h 1.6 km/h 87% 0.0 mm 26 W/m2
09:52 18.9 °C 16.7 °C 1011.9 hPa Calm   3.2 km/h 87% 0.0 mm 25 W/m2
09:57 18.9 °C 16.7 °C 1011.9 hPa Calm   3.2 km/h 87% 0.0 mm 28 W/m2
10:02 18.9 °C 16.9 °C 1011.5 hPa Calm   3.2 km/h 88% 0.0 mm 33 W/m2
10:07 18.9 °C 16.9 °C 1011.5 hPa Calm     88% 0.0 mm 30 W/m2
10:12 18.9 °C 17 °C 1011.9 hPa Calm     89% 0.0 mm 42 W/m2
10:17 18.9 °C 17 °C 1011.9 hPa NE 1.4 km/h 1.6 km/h 89% 0.0 mm 56 W/m2
10:22 18.9 °C 17 °C 1011.5 hPa Calm     89% 0.0 mm 83 W/m2
10:27 19.1 °C 17.2 °C 1011.5 hPa North 3.2 km/h 3.2 km/h 89% 0.0 mm 63 W/m2
10:32 19.2 °C 17.3 °C 1011.5 hPa NW 3.2 km/h 4.8 km/h 89% 0.0 mm 42 W/m2
10:37 19.3 °C 17.4 °C 1011.9 hPa NW 3.2 km/h 6.4 km/h 89% 0.5 mm 35 W/m2
10:42 19.2 °C 17.5 °C 1011.5 hPa WNW 1.4 km/h 3.2 km/h 90% 1.8 mm 35 W/m2
10:47 19.1 °C 17.6 °C 1011.2 hPa Calm   1.6 km/h 91% 2.0 mm 26 W/m2
10:52 19.1 °C 17.6 °C 1011.2 hPa Calm   1.6 km/h 91% 2.0 mm 26 W/m2
10:57 18.9 °C 17.6 °C 1011.2 hPa West 1.4 km/h 4.8 km/h 92% 2.3 mm 25 W/m2
11:02 18.9 °C 17.6 °C 1010.8 hPa Calm     92% 2.3 mm 25 W/m2
11:07 18.8 °C 17.6 °C 1011.2 hPa NW 3.2 km/h 4.8 km/h 93% 2.3 mm 26 W/m2
11:12 18.8 °C 17.6 °C 1011.2 hPa West 4.7 km/h 4.8 km/h 93% 2.3 mm 28 W/m2
11:17 18.7 °C 17.5 °C 1011.2 hPa West 3.2 km/h 6.4 km/h 93% 2.3 mm 33 W/m2
11:22 18.6 °C 17.6 °C 1011.5 hPa West 4.7 km/h 6.4 km/h 94% 2.5 mm 39 W/m2
11:27 18.5 °C 17.5 °C 1011.5 hPa West 4.7 km/h 4.8 km/h 94% 2.8 mm 47 W/m2
11:32 18.5 °C 17.5 °C 1011.5 hPa NW 1.4 km/h 4.8 km/h 94% 3.0 mm 56 W/m2
11:37 18.6 °C 17.6 °C 1011.9 hPa Calm   1.6 km/h 94% 2.3 mm 63 W/m2
11:42 18.6 °C 17.6 °C 1011.9 hPa WNW 1.4 km/h 1.6 km/h 94% 1.5 mm 70 W/m2
11:47 18.7 °C 17.7 °C 1011.9 hPa Calm   1.6 km/h 94% 1.3 mm 77 W/m2
11:52 18.8 °C 17.8 °C 1011.9 hPa Calm     94% 1.5 mm 86 W/m2
11:57 18.8 °C 17.8 °C 1011.9 hPa NE 3.2 km/h 3.2 km/h 94% 1.3 mm 97 W/m2
12:02 18.9 °C 17.9 °C 1011.9 hPa Calm   3.2 km/h 94% 1.5 mm 111 W/m2
12:07 18.9 °C 17.9 °C 1011.9 hPa Calm     94% 1.5 mm 120 W/m2
12:12 18.9 °C 17.9 °C 1011.9 hPa Calm   3.2 km/h 94% 1.5 mm 128 W/m2
12:17 18.9 °C 18.1 °C 1011.9 hPa Calm     95% 1.5 mm 142 W/m2
12:22 19 °C 18 °C 1011.9 hPa Calm   1.6 km/h 94% 1.5 mm 158 W/m2
12:27 19.2 °C 18.2 °C 1011.9 hPa East 1.4 km/h 4.8 km/h 94% 1.5 mm 178 W/m2
12:32 19.2 °C 18.2 °C 1011.9 hPa Calm   3.2 km/h 94% 1.3 mm 218 W/m2
12:37 19.3 °C 18.5 °C 1011.9 hPa Calm   4.8 km/h 95% 1.5 mm 299 W/m2
12:42 19.6 °C 18.8 °C 1011.9 hPa ENE 1.4 km/h 4.8 km/h 95% 1.3 mm 371 W/m2
12:47 19.8 °C 19 °C 1011.9 hPa Calm   3.2 km/h 95% 1.3 mm 258 W/m2
12:52 19.9 °C 18.9 °C 1011.9 hPa Calm   3.2 km/h 94% 1.0 mm 325 W/m2
12:57 20 °C 19 °C 1011.9 hPa ENE 1.4 km/h 3.2 km/h 94% 1.0 mm 795 W/m2
13:02 20.3 °C 19.3 °C 1011.9 hPa ESE 3.2 km/h 4.8 km/h 94% 0.5 mm 487 W/m2
13:07 20.6 °C 19.4 °C 1011.9 hPa NE 3.2 km/h 4.8 km/h 93% 0.5 mm 246 W/m2
13:12 20.6 °C 19.3 °C 1011.9 hPa Calm   3.2 km/h 92% 0.5 mm 276 W/m2
13:17 20.8 °C 19.6 °C 1011.9 hPa East 4.7 km/h 4.8 km/h 93% 0.5 mm 403 W/m2
13:22 20.9 °C 19.7 °C 1011.9 hPa ESE 1.4 km/h 1.6 km/h 93% 0.2 mm 404 W/m2
13:27 21.2 °C 19.8 °C 1011.9 hPa ENE 1.4 km/h 3.2 km/h 92% 0.2 mm 290 W/m2
13:32 21.3 °C 19.9 °C 1011.9 hPa Calm   4.8 km/h 92% 0.2 mm 404 W/m2
13:37 21.5 °C 20.1 °C 1011.9 hPa ENE 3.2 km/h 4.8 km/h 92% 0.0 mm 385 W/m2
13:42 21.5 °C 19.8 °C 1011.9 hPa SE 3.2 km/h 6.4 km/h 90% 0.0 mm 283 W/m2
13:47 21.6 °C 20.1 °C 1011.9 hPa East 4.7 km/h 4.8 km/h 91% 0.0 mm 230 W/m2
13:52 21.7 °C 20.2 °C 1011.9 hPa Calm   1.6 km/h 91% 0.0 mm 373 W/m2
13:57 21.8 °C 20.3 °C 1011.9 hPa ESE 1.4 km/h 3.2 km/h 91% 0.0 mm 392 W/m2
14:02 22 °C 20.3 °C 1011.9 hPa SE 1.4 km/h 3.2 km/h 90% 0.0 mm 279 W/m2
14:07 22.2 °C 20.5 °C 1011.5 hPa East 3.2 km/h 6.4 km/h 90% 0.0 mm 155 W/m2
14:12 22.2 °C 20.5 °C 1011.9 hPa East 1.4 km/h 3.2 km/h 90% 0.0 mm 146 W/m2
14:17 22.3 °C 20.6 °C 1011.5 hPa NW 1.4 km/h 6.4 km/h 90% 0.0 mm 232 W/m2
14:22 22.3 °C 20.6 °C 1011.9 hPa Calm   1.6 km/h 90% 0.0 mm 294 W/m2
14:28 22.4 °C 20.7 °C 1011.5 hPa Calm   4.8 km/h 90% 0.0 mm 204 W/m2
14:33 22.6 °C 20.9 °C 1011.9 hPa Calm   1.6 km/h 90% 0.0 mm 225 W/m2
14:38 22.7 °C 20.2 °C 1011.9 hPa ENE 3.2 km/h 3.2 km/h 86% 0.0 mm 216 W/m2
14:43 22.9 °C 20.6 °C 1011.5 hPa NNW 1.4 km/h 4.8 km/h 87% 0.0 mm 408 W/m2
14:48 23 °C 20.3 °C 1011.5 hPa Calm   6.4 km/h 85% 0.0 mm 248 W/m2
14:53 23.1 °C 20.1 °C 1011.5 hPa Calm   3.2 km/h 83% 0.0 mm 613 W/m2
14:58 23.4 °C 20.5 °C 1011.5 hPa NNE 1.4 km/h 6.4 km/h 84% 0.0 mm 874 W/m2
15:03 23.8 °C 20.5 °C 1011.2 hPa NW 3.2 km/h 8 km/h 82% 0.0 mm 524 W/m2
15:08 24.1 °C 20.4 °C 1011.2 hPa Calm   3.2 km/h 80% 0.0 mm 392 W/m2
15:13 24.1 °C 20.6 °C 1011.2 hPa Calm   3.2 km/h 81% 0.0 mm 390 W/m2
15:18 24.1 °C 20.4 °C 1011.2 hPa WSW 1.4 km/h 6.4 km/h 80% 0.0 mm 369 W/m2
15:23 23.9 °C 20.2 °C 1011.2 hPa NW 3.2 km/h 4.8 km/h 80% 0.0 mm 281 W/m2
15:28 23.8 °C 19.9 °C 1011.2 hPa Calm   4.8 km/h 79% 0.0 mm 364 W/m2
15:33 23.9 °C 20.6 °C 1010.8 hPa Calm   3.2 km/h 82% 0.0 mm 325 W/m2
15:38 24 °C 20.7 °C 1010.8 hPa NE 3.2 km/h 3.2 km/h 82% 0.0 mm 313 W/m2
15:43 24.1 °C 20.8 °C 1010.8 hPa NNW 1.4 km/h 3.2 km/h 82% 0.0 mm 269 W/m2
15:48 24.3 °C 20.6 °C 1010.8 hPa Calm   1.6 km/h 80% 0.0 mm 353 W/m2
15:53 24.6 °C 21.5 °C 1010.8 hPa NE 1.4 km/h 1.6 km/h 83% 0.0 mm 334 W/m2
15:58 24.5 °C 20.6 °C 1010.8 hPa East 4.7 km/h 6.4 km/h 79% 0.0 mm 334 W/m2
16:03 24.3 °C 20.2 °C 1010.8 hPa WNW 4.7 km/h 11.3 km/h 78% 0.0 mm 258 W/m2
16:08 24.1 °C 20 °C 1010.8 hPa West 1.4 km/h 8 km/h 78% 0.0 mm 160 W/m2
16:13 23.9 °C 20 °C 1010.8 hPa NW 1.4 km/h 3.2 km/h 79% 0.0 mm 109 W/m2
16:18 23.8 °C 20.1 °C 1010.8 hPa NE 1.4 km/h 3.2 km/h 80% 0.0 mm 113 W/m2
16:23 23.7 °C 20 °C 1010.8 hPa WNW 1.4 km/h 4.8 km/h 80% 0.0 mm 149 W/m2
16:28 23.7 °C 20.4 °C 1010.8 hPa Calm   1.6 km/h 82% 0.0 mm 206 W/m2
16:33 23.6 °C 20.3 °C 1010.8 hPa Calm   3.2 km/h 82% 0.0 mm 213 W/m2
16:38 23.7 °C 20.2 °C 1010.8 hPa Calm   3.2 km/h 81% 0.0 mm 204 W/m2
16:43 23.7 °C 20.2 °C 1010.8 hPa ENE 1.4 km/h 3.2 km/h 81% 0.0 mm 192 W/m2
16:48 23.8 °C 19.9 °C 1010.8 hPa WNW 4.7 km/h 6.4 km/h 79% 0.0 mm 190 W/m2
16:53 23.8 °C 19.9 °C 1010.8 hPa ENE 1.4 km/h 1.6 km/h 79% 0.0 mm 183 W/m2
16:58 23.8 °C 19.7 °C 1010.8 hPa Calm   6.4 km/h 78% 0.0 mm 183 W/m2
17:03 23.9 °C 20.4 °C 1010.8 hPa NW 6.4 km/h 6.4 km/h 81% 0.0 mm 257 W/m2
17:08 23.9 °C 19.6 °C 1010.8 hPa East 3.2 km/h 3.2 km/h 77% 0.0 mm 536 W/m2
17:13 24.3 °C 19.8 °C 1010.8 hPa East 3.2 km/h 4.8 km/h 76% 0.0 mm 287 W/m2
17:18 24.6 °C 19.7 °C 1010.8 hPa NE 1.4 km/h 4.8 km/h 74% 0.0 mm 204 W/m2
17:23 24.6 °C 19.9 °C 1010.8 hPa West 3.2 km/h 8 km/h 75% 0.0 mm 153 W/m2
17:28 24.4 °C 19.5 °C 1010.8 hPa WNW 1.4 km/h 4.8 km/h 74% 0.0 mm 141 W/m2
17:33 24.2 °C 19.5 °C 1010.8 hPa Calm   8 km/h 75% 0.0 mm 304 W/m2
17:38 24.2 °C 19.5 °C 1010.8 hPa ENE 3.2 km/h 4.8 km/h 75% 0.0 mm 448 W/m2
17:43 24.4 °C 19.7 °C 1010.8 hPa WNW 3.2 km/h 6.4 km/h 75% 0.0 mm 401 W/m2
17:48 24.5 °C 19.8 °C 1010.8 hPa WNW 3.2 km/h 3.2 km/h 75% 0.0 mm 262 W/m2
17:53 24.4 °C 19.5 °C 1010.8 hPa Calm   3.2 km/h 74% 0.0 mm 172 W/m2
17:58 24.3 °C 19.6 °C 1010.8 hPa West 3.2 km/h 9.7 km/h 75% 0.0 mm 167 W/m2
18:03 24.2 °C 19.7 °C 1010.8 hPa West 3.2 km/h 3.2 km/h 76% 0.0 mm 297 W/m2
18:08 24.3 °C 20.2 °C 1010.8 hPa WSW 1.4 km/h 8 km/h 78% 0.0 mm 227 W/m2
18:13 24.4 °C 19.9 °C 1010.8 hPa SW 6.4 km/h 6.4 km/h 76% 0.0 mm 329 W/m2
18:18 24.6 °C 18.8 °C 1010.8 hPa West 4.7 km/h 11.3 km/h 70% 0.0 mm 299 W/m2
18:23 24.6 °C 18.1 °C 1010.8 hPa WNW 4.7 km/h 12.9 km/h 67% 0.0 mm 213 W/m2
18:28 24.3 °C 18.2 °C 1010.8 hPa WSW 4.7 km/h 6.4 km/h 69% 0.0 mm 77 W/m2
18:33 23.9 °C 18.3 °C 1011.2 hPa West 3.2 km/h 8 km/h 71% 0.0 mm 47 W/m2
18:38 23.5 °C 17.9 °C 1011.2 hPa WNW 4.7 km/h 11.3 km/h 71% 0.0 mm 32 W/m2
18:43 23.2 °C 18.1 °C 1011.2 hPa WSW 3.2 km/h 12.9 km/h 73% 0.0 mm 23 W/m2
18:48 22.8 °C 17.9 °C 1011.2 hPa WNW 3.2 km/h 8 km/h 74% 0.0 mm 21 W/m2
18:53 22.6 °C 17.9 °C 1011.2 hPa West 1.4 km/h 12.9 km/h 75% 0.0 mm 21 W/m2
18:58 22.3 °C 18.1 °C 1011.2 hPa WNW 1.4 km/h 3.2 km/h 77% 0.0 mm 18 W/m2
19:03 22 °C 17.8 °C 1011.2 hPa WNW 3.2 km/h 8 km/h 77% 0.0 mm 14 W/m2
19:08 21.9 °C 17.7 °C 1011.2 hPa NW 1.4 km/h 8 km/h 77% 0.0 mm 7 W/m2
19:13 21.8 °C 17.6 °C 1011.2 hPa WNW 3.2 km/h 8 km/h 77% 0.0 mm 5 W/m2
19:18 21.8 °C 17.6 °C 1011.2 hPa West 3.2 km/h 11.3 km/h 77% 0.0 mm 7 W/m2
19:23 21.7 °C 17.5 °C 1011.2 hPa WNW 3.2 km/h 6.4 km/h 77% 0.0 mm 7 W/m2
19:28 21.6 °C 17.6 °C 1011.2 hPa Calm   9.7 km/h 78% 0.0 mm 5 W/m2
19:33 21.5 °C 17.7 °C 1011.2 hPa Calm   3.2 km/h 79% 0.0 mm 5 W/m2
19:38 21.3 °C 17.5 °C 1011.2 hPa NW 1.4 km/h 4.8 km/h 79% 0.0 mm 0 W/m2
19:43 21.3 °C 17.7 °C 1011.2 hPa Calm   4.8 km/h 80% 0.0 mm 0 W/m2
19:48 21.3 °C 17.7 °C 1011.2 hPa Calm     80% 0.0 mm 0 W/m2
19:53 21.2 °C 17.8 °C 1011.2 hPa Calm     81% 0.0 mm 0 W/m2
19:58 21 °C 17.8 °C 1011.2 hPa Calm   1.6 km/h 82% 0.0 mm 0 W/m2
20:03 20.8 °C 17.8 °C 1011.2 hPa Calm     83% 0.0 mm 0 W/m2
20:09 20.7 °C 17.7 °C 1011.2 hPa Calm     83% 0.0 mm 0 W/m2
20:14 20.6 °C 17.6 °C 1011.2 hPa Calm     83% 0.0 mm 0 W/m2
20:19 20.6 °C 17.8 °C 1011.2 hPa Calm   1.6 km/h 84% 0.0 mm 0 W/m2
20:24 20.6 °C 17.8 °C 1011.5 hPa Calm   1.6 km/h 84% 0.0 mm 0 W/m2
20:29 20.4 °C 17.8 °C 1011.5 hPa Calm   1.6 km/h 85% 0.0 mm 0 W/m2
20:34 20.4 °C 18 °C 1011.5 hPa Calm     86% 0.0 mm 0 W/m2
20:39 20.3 °C 17.9 °C 1011.5 hPa Calm   3.2 km/h 86% 0.0 mm 0 W/m2
20:44 20.3 °C 17.9 °C 1011.5 hPa Calm     86% 0.0 mm 0 W/m2
20:49 20.2 °C 18 °C 1011.5 hPa Calm   3.2 km/h 87% 0.0 mm 0 W/m2
20:54 20.2 °C 18 °C 1011.9 hPa Calm   1.6 km/h 87% 0.0 mm 0 W/m2
20:59 20.2 °C 18 °C 1011.9 hPa Calm   3.2 km/h 87% 0.0 mm 0 W/m2
21:04 20.1 °C 17.9 °C 1011.9 hPa Calm     87% 0.0 mm 0 W/m2
21:09 20.1 °C 17.9 °C 1011.9 hPa Calm   3.2 km/h 87% 0.0 mm 0 W/m2
21:14 20.1 °C 17.9 °C 1011.9 hPa Calm   1.6 km/h 87% 0.0 mm 0 W/m2
21:19 20.1 °C 17.9 °C 1011.9 hPa Calm     87% 0.0 mm 0 W/m2
21:24 19.9 °C 17.7 °C 1011.9 hPa Calm     87% 0.0 mm 0 W/m2
21:29 19.9 °C 17.5 °C 1011.9 hPa Calm     86% 0.0 mm 0 W/m2
21:34 19.8 °C 17.4 °C 1011.9 hPa Calm   1.6 km/h 86% 0.0 mm 0 W/m2
21:39 19.7 °C 17.5 °C 1011.9 hPa Calm     87% 0.0 mm 0 W/m2
21:44 19.6 °C 17.6 °C 1011.9 hPa Calm   1.6 km/h 88% 0.0 mm 0 W/m2
21:49 19.4 °C 17.4 °C 1012.2 hPa Calm     88% 0.0 mm 0 W/m2
21:54 19.3 °C 17.3 °C 1012.2 hPa Calm   1.6 km/h 88% 0.0 mm 0 W/m2
21:59 19.2 °C 17.3 °C 1012.2 hPa Calm     89% 0.0 mm 0 W/m2
22:04 19.1 °C 17.2 °C 1012.2 hPa Calm     89% 0.0 mm 0 W/m2
22:09 18.9 °C 17 °C 1012.2 hPa Calm   1.6 km/h 89% 0.0 mm 0 W/m2
22:14 18.8 °C 16.9 °C 1012.2 hPa NW 1.4 km/h 1.6 km/h 89% 0.0 mm 0 W/m2
22:19 18.7 °C 17 °C 1012.2 hPa Calm     90% 0.0 mm 0 W/m2
22:24 18.6 °C 16.9 °C 1012.2 hPa Calm     90% 0.0 mm 0 W/m2
22:29 18.6 °C 16.9 °C 1012.2 hPa Calm   3.2 km/h 90% 0.0 mm 0 W/m2
22:34 18.5 °C 17 °C 1012.2 hPa Calm     91% 0.0 mm 0 W/m2
22:39 18.4 °C 16.9 °C 1012.2 hPa Calm     91% 0.0 mm 0 W/m2
22:44 18.4 °C 16.9 °C 1012.2 hPa Calm     91% 0.0 mm 0 W/m2
22:49 18.3 °C 17 °C 1012.2 hPa Calm     92% 0.0 mm 0 W/m2
22:54 18.3 °C 17 °C 1012.5 hPa Calm     92% 0.0 mm 0 W/m2
22:59 18.3 °C 17 °C 1012.5 hPa Calm     92% 0.0 mm 0 W/m2
23:04 18.2 °C 16.9 °C 1012.5 hPa Calm     92% 0.0 mm 0 W/m2
23:09 18.2 °C 16.9 °C 1012.5 hPa Calm     92% 0.0 mm 0 W/m2
23:14 18.2 °C 16.9 °C 1012.5 hPa Calm     92% 0.0 mm 0 W/m2
23:19 18.2 °C 17 °C 1012.5 hPa Calm     93% 0.0 mm 0 W/m2
23:24 18.1 °C 16.9 °C 1012.5 hPa Calm   1.6 km/h 93% 0.0 mm 0 W/m2
23:29 18.1 °C 16.9 °C 1012.5 hPa Calm     93% 0.0 mm 0 W/m2
23:34 18.1 °C 16.9 °C 1012.5 hPa Calm   1.6 km/h 93% 0.0 mm 0 W/m2
23:39 18.1 °C 16.9 °C 1012.5 hPa Calm     93% 0.0 mm 0 W/m2
23:44 18 °C 16.9 °C 1012.5 hPa Calm     93% 0.0 mm 0 W/m2
23:49 18 °C 16.9 °C 1012.5 hPa Calm     93% 0.0 mm 0 W/m2
23:54 17.9 °C 16.8 °C 1012.5 hPa Calm     93% 0.0 mm 0 W/m2
23:59 17.9 °C 16.8 °C 1012.5 hPa Calm     93% 0.0 mm 0 W/m2
Juneau County Weather
Compliments of Weather Underground - 4 mb